Aviation Digital Data Service (ADDS)

Output produced by METARs form (1236 UTC 24 May 2022)
found at http://www.aviationweather.gov/metar/data/
 
LOAN 241200Z 36008KT 3000 -SHRA BR FEW010 SCT020CB BKN040 RESHRA
TAF AMD LOAN 241216Z 2412/2421 11007KT 9999 SCT050 FEW050CB 
     TEMPO 2412/2421 2000 TSRA 
     PROB30 
     TEMPO 2412/2421 28015G25KT